Martinsville, Virginia
Current Conditions -  °F | °C
As of 3:55 PM on Tuesday 25 Nov 2014 (Local Time) from KMTV Reporting Station
Clear Clear  
Wind Chill: 56°   Ceiling: Unl
Heat Index: 56°   Visibility: 10mi
Dew Point: 32°   Wind: 3mph
Humidity: 40%   Direction: 70°ENE
Pressure: 30.05"   Gusts: NA
Location:  36.69°N, 79.87°W
Report Text: KMTV 252055Z AUTO 07003KT 10SM CLR 14/00 A3005 RMK AO2 T01350000
Loading
Personal Weather Stations






























Interactive Weather Map New forecast layout! Learn more

10-Day Weather Forecast

Advertisements
Track Severe Weather on mobile